createdAt,value
2023-05-05T00:01:25.726Z,16.81
2023-05-05T00:03:52.578Z,16.78
2023-05-05T00:06:19.583Z,16.62
2023-05-05T00:08:46.846Z,16.60
2023-05-05T00:11:13.630Z,16.67
2023-05-05T00:13:40.350Z,16.62
2023-05-05T00:16:07.304Z,16.55
2023-05-05T00:18:34.235Z,16.53
2023-05-05T00:21:01.032Z,16.48
2023-05-05T00:23:27.818Z,16.39
2023-05-05T00:25:54.495Z,16.48
2023-05-05T00:28:21.125Z,16.39
2023-05-05T00:30:47.871Z,16.29
2023-05-05T00:33:15.059Z,16.31
2023-05-05T00:35:42.207Z,16.27
2023-05-05T00:38:09.425Z,16.18
2023-05-05T00:40:37.867Z,16.04
2023-05-05T00:43:05.118Z,16.13
2023-05-05T00:45:31.920Z,15.98
2023-05-05T00:48:00.518Z,15.96
2023-05-05T00:50:30.059Z,15.73
2023-05-05T00:53:00.735Z,15.76
2023-05-05T00:55:29.238Z,15.66
2023-05-05T00:57:57.791Z,15.45
2023-05-05T01:00:25.134Z,15.28
2023-05-05T01:02:52.600Z,15.11
2023-05-05T01:05:21.804Z,15.14
2023-05-05T01:08:06.556Z,15.22
2023-05-05T01:10:41.199Z,15.26
2023-05-05T01:13:31.529Z,15.15
2023-05-05T01:16:23.943Z,15.09
2023-05-05T01:19:09.624Z,15.06
2023-05-05T01:21:41.366Z,14.96
2023-05-05T01:24:29.668Z,15.05
2023-05-05T01:27:34.182Z,15.05
2023-05-05T01:30:26.220Z,14.88
2023-05-05T01:32:56.759Z,14.77
2023-05-05T01:35:31.834Z,14.77
2023-05-05T01:38:22.630Z,14.76
2023-05-05T01:40:59.717Z,14.64
2023-05-05T01:43:29.457Z,14.84
2023-05-05T01:45:57.307Z,14.78
2023-05-05T01:48:26.025Z,14.81
2023-05-05T01:50:53.319Z,14.89
2023-05-05T01:53:21.267Z,14.81
2023-05-05T01:55:50.414Z,14.74
2023-05-05T01:58:18.388Z,14.59
2023-05-05T02:00:46.849Z,14.70
2023-05-05T02:03:15.746Z,14.53
2023-05-05T02:05:47.105Z,14.59
2023-05-05T02:08:15.052Z,14.63
2023-05-05T02:10:43.464Z,14.50
2023-05-05T02:13:15.357Z,14.51
2023-05-05T02:15:43.200Z,14.34
2023-05-05T02:18:10.369Z,14.50
2023-05-05T02:20:41.061Z,14.57
2023-05-05T02:23:08.510Z,14.52
2023-05-05T02:25:41.918Z,14.62
2023-05-05T02:28:17.276Z,14.54
2023-05-05T02:30:47.200Z,14.47
2023-05-05T02:33:19.086Z,14.66
2023-05-05T02:35:47.331Z,14.62
2023-05-05T02:38:17.837Z,14.64
2023-05-05T02:40:50.245Z,14.55
2023-05-05T02:43:21.369Z,14.43
2023-05-05T02:45:48.436Z,14.26
2023-05-05T02:48:15.986Z,14.23
2023-05-05T02:50:42.619Z,14.07
2023-05-05T02:53:26.788Z,14.24
2023-05-05T02:56:16.225Z,14.07
2023-05-05T02:58:54.531Z,14.19
2023-05-05T03:01:46.487Z,14.15
2023-05-05T03:04:25.823Z,13.96
2023-05-05T03:06:58.273Z,14.04
2023-05-05T03:09:51.694Z,13.99
2023-05-05T03:12:22.362Z,13.84
2023-05-05T03:15:02.202Z,13.71
2023-05-05T03:17:31.770Z,13.71
2023-05-05T03:20:04.753Z,13.68
2023-05-05T03:22:37.824Z,13.69
2023-05-05T03:25:07.690Z,13.71
2023-05-05T03:27:34.371Z,13.67
2023-05-05T03:30:01.391Z,13.61
2023-05-05T03:32:29.020Z,13.71
2023-05-05T03:34:56.304Z,13.74
2023-05-05T03:37:29.052Z,13.75
2023-05-05T03:39:57.147Z,13.92
2023-05-05T03:42:23.817Z,13.83
2023-05-05T03:44:53.554Z,14.00
2023-05-05T03:47:24.525Z,13.98
2023-05-05T03:49:52.401Z,14.03
2023-05-05T03:52:19.286Z,14.01
2023-05-05T03:54:46.430Z,14.00
2023-05-05T03:57:13.069Z,13.88
2023-05-05T03:59:40.960Z,13.82
2023-05-05T04:02:08.562Z,13.88
2023-05-05T04:04:35.692Z,13.80
2023-05-05T04:07:02.929Z,13.92
2023-05-05T04:09:29.673Z,14.00
2023-05-05T04:11:56.700Z,14.05
2023-05-05T04:14:24.412Z,14.01
2023-05-05T04:16:51.752Z,14.07
2023-05-05T04:19:18.962Z,14.01
2023-05-05T04:21:46.162Z,14.08
2023-05-05T04:24:13.560Z,13.88
2023-05-05T04:26:40.261Z,13.79
2023-05-05T04:29:06.982Z,13.92
2023-05-05T04:31:33.905Z,13.87
2023-05-05T04:34:00.664Z,14.07
2023-05-05T04:36:27.448Z,14.05
2023-05-05T04:38:54.507Z,14.12
2023-05-05T04:41:21.463Z,14.01
2023-05-05T04:43:48.776Z,14.08
2023-05-05T04:46:15.772Z,14.25
2023-05-05T04:48:42.890Z,14.34
2023-05-05T04:51:09.680Z,14.44
2023-05-05T04:53:37.562Z,14.40
2023-05-05T04:56:04.353Z,14.62
2023-05-05T04:58:31.253Z,14.62
2023-05-05T05:00:58.491Z,14.83
2023-05-05T05:03:25.364Z,14.89
2023-05-05T05:05:52.597Z,14.98
2023-05-05T05:08:19.652Z,14.99
2023-05-05T05:10:46.287Z,15.03
2023-05-05T05:13:13.224Z,15.09
2023-05-05T05:15:40.722Z,15.20
2023-05-05T05:18:07.540Z,15.34
2023-05-05T05:20:34.300Z,15.32
2023-05-05T05:23:02.423Z,15.38
2023-05-05T05:25:30.796Z,15.49
2023-05-05T05:28:08.981Z,15.63
2023-05-05T05:30:41.678Z,15.67
2023-05-05T05:33:10.781Z,15.68
2023-05-05T05:35:37.455Z,15.75
2023-05-05T05:38:04.155Z,15.77
2023-05-05T05:40:31.570Z,15.73
2023-05-05T05:42:59.062Z,15.95
2023-05-05T05:45:26.727Z,15.93
2023-05-05T05:47:53.449Z,15.97
2023-05-05T05:50:20.933Z,16.17
2023-05-05T05:52:47.821Z,16.26
2023-05-05T05:55:15.386Z,16.34
2023-05-05T05:57:42.674Z,16.39
2023-05-05T06:00:11.930Z,16.57
2023-05-05T06:02:38.633Z,16.65
2023-05-05T06:05:09.183Z,16.70
2023-05-05T06:07:36.435Z,16.78
2023-05-05T06:10:18.545Z,16.94
2023-05-05T06:12:50.847Z,17.03
2023-05-05T06:15:18.479Z,17.14
2023-05-05T06:17:45.626Z,17.21
2023-05-05T06:20:13.829Z,17.23
2023-05-05T06:22:40.766Z,17.59
2023-05-05T06:25:08.046Z,17.59
2023-05-05T06:27:35.205Z,17.69
2023-05-05T06:30:01.858Z,17.80
2023-05-05T06:32:28.441Z,17.82
2023-05-05T06:34:55.073Z,18.06
2023-05-05T06:37:21.970Z,18.19
2023-05-05T06:39:49.109Z,18.40
2023-05-05T06:42:15.752Z,18.47
2023-05-05T06:44:42.305Z,18.56
2023-05-05T06:47:08.980Z,18.63
2023-05-05T06:49:35.641Z,18.94
2023-05-05T06:52:02.390Z,19.31
2023-05-05T06:54:29.041Z,19.84
2023-05-05T06:56:57.530Z,19.90
2023-05-05T06:59:26.130Z,20.22
2023-05-05T07:01:52.748Z,20.55
2023-05-05T07:04:19.463Z,20.62
2023-05-05T07:06:46.140Z,20.84
2023-05-05T07:09:13.217Z,21.05
2023-05-05T07:11:40.601Z,21.14
2023-05-05T07:14:07.135Z,21.49
2023-05-05T07:16:34.735Z,21.54
2023-05-05T07:19:01.581Z,21.49
2023-05-05T07:21:28.244Z,21.59
2023-05-05T07:23:54.857Z,21.86
2023-05-05T07:26:21.496Z,21.90
2023-05-05T07:28:48.124Z,22.02
2023-05-05T07:31:14.804Z,22.23
2023-05-05T07:33:42.142Z,22.50
2023-05-05T07:36:08.976Z,22.61
2023-05-05T07:38:37.944Z,22.97
2023-05-05T07:41:04.708Z,22.65
2023-05-05T07:43:31.293Z,23.10
2023-05-05T07:45:58.035Z,23.23
2023-05-05T07:48:24.648Z,23.53
2023-05-05T07:50:52.464Z,23.65
2023-05-05T07:53:19.153Z,23.76
2023-05-05T07:55:46.218Z,23.40
2023-05-05T07:58:12.823Z,23.56
2023-05-05T08:00:39.742Z,23.54
2023-05-05T08:03:07.188Z,23.83
2023-05-05T08:05:36.016Z,24.27
2023-05-05T08:08:03.611Z,24.67
2023-05-05T08:10:30.159Z,24.62
2023-05-05T08:12:56.797Z,24.96
2023-05-05T08:15:23.423Z,25.08
2023-05-05T08:17:52.101Z,24.96
2023-05-05T08:20:20.349Z,24.83
2023-05-05T08:22:47.556Z,24.62
2023-05-05T08:25:14.693Z,25.15
2023-05-05T08:27:42.524Z,25.38
2023-05-05T08:30:10.093Z,25.45
2023-05-05T08:32:38.320Z,25.56
2023-05-05T08:35:06.557Z,26.04
2023-05-05T08:37:33.810Z,26.06
2023-05-05T08:40:00.524Z,25.48
2023-05-05T08:42:38.159Z,25.54
2023-05-05T08:45:07.460Z,25.79
2023-05-05T08:47:35.900Z,26.07
2023-05-05T08:50:03.316Z,26.49
2023-05-05T08:52:40.495Z,26.88
2023-05-05T08:55:17.981Z,27.12
2023-05-05T08:57:57.250Z,27.11
2023-05-05T09:00:26.450Z,27.41
2023-05-05T09:02:56.318Z,28.00
2023-05-05T09:05:23.843Z,28.34
2023-05-05T09:07:51.065Z,28.47
2023-05-05T09:10:18.288Z,28.31
2023-05-05T09:12:45.163Z,28.65
2023-05-05T09:15:13.358Z,28.52
2023-05-05T09:17:40.858Z,28.63
2023-05-05T09:20:09.727Z,28.63
2023-05-05T09:22:36.668Z,29.02
2023-05-05T09:25:05.077Z,28.96
2023-05-05T09:27:36.354Z,29.35
2023-05-05T09:30:04.362Z,29.54
2023-05-05T09:32:42.565Z,29.09
2023-05-05T09:35:09.641Z,29.38
2023-05-05T09:37:37.544Z,29.88
2023-05-05T09:40:05.434Z,29.92
2023-05-05T09:42:32.248Z,30.12
2023-05-05T09:45:00.019Z,30.33
2023-05-05T09:47:36.733Z,30.57
2023-05-05T09:50:07.434Z,30.40
2023-05-05T09:52:34.614Z,30.87
2023-05-05T09:55:02.398Z,30.40
2023-05-05T09:57:33.716Z,31.00
2023-05-05T10:00:02.247Z,30.98
2023-05-05T10:02:32.970Z,31.24
2023-05-05T10:05:29.376Z,30.07
2023-05-05T10:08:13.593Z,30.99
2023-05-05T10:10:50.937Z,31.63
2023-05-05T10:13:20.760Z,31.84
2023-05-05T10:15:51.052Z,32.01
2023-05-05T10:18:28.638Z,31.48
2023-05-05T10:21:01.201Z,31.67
2023-05-05T10:23:49.539Z,31.32
2023-05-05T10:26:19.827Z,31.25
2023-05-05T10:28:57.033Z,31.54
2023-05-05T10:31:33.147Z,31.31
2023-05-05T10:34:05.950Z,31.15
2023-05-05T10:36:34.116Z,29.70
2023-05-05T10:39:01.609Z,29.86
2023-05-05T10:41:30.810Z,28.82
2023-05-05T10:43:58.884Z,29.09
2023-05-05T10:46:28.109Z,28.24
2023-05-05T10:49:04.880Z,28.54
2023-05-05T10:52:01.472Z,28.67
2023-05-05T10:54:45.580Z,29.88
2023-05-05T10:57:14.684Z,29.60
2023-05-05T10:59:44.291Z,28.88
2023-05-05T11:02:28.500Z,29.06
2023-05-05T11:05:14.134Z,30.39
2023-05-05T11:07:42.571Z,31.33
2023-05-05T11:10:11.408Z,31.73
2023-05-05T11:13:04.646Z,32.20
2023-05-05T11:15:31.444Z,32.04
2023-05-05T11:17:59.905Z,30.53
2023-05-05T11:20:36.023Z,29.47
2023-05-05T11:23:02.587Z,31.18
2023-05-05T11:25:51.412Z,32.60
2023-05-05T11:28:19.502Z,32.93
2023-05-05T11:30:55.748Z,31.62
2023-05-05T11:33:38.193Z,32.06
2023-05-05T11:36:12.791Z,33.39
2023-05-05T11:38:39.387Z,33.83
2023-05-05T11:41:27.807Z,33.07
2023-05-05T11:44:19.546Z,34.84
2023-05-05T11:46:53.197Z,35.58
2023-05-05T11:49:31.743Z,34.73
2023-05-05T11:52:02.374Z,35.15
2023-05-05T11:54:29.931Z,35.71
2023-05-05T11:57:10.508Z,33.55
2023-05-05T11:59:49.969Z,33.72
2023-05-05T12:02:20.214Z,31.58
2023-05-05T12:04:47.957Z,33.22
2023-05-05T12:07:19.227Z,30.72
2023-05-05T12:09:47.233Z,30.77
2023-05-05T12:12:14.726Z,32.53
2023-05-05T12:14:54.244Z,33.12
2023-05-05T12:17:22.720Z,31.72
2023-05-05T12:19:55.039Z,32.13
2023-05-05T12:22:25.996Z,34.30
2023-05-05T12:24:57.752Z,34.02
2023-05-05T12:27:26.346Z,34.20
2023-05-05T12:29:56.914Z,32.03
2023-05-05T12:32:30.364Z,33.34
2023-05-05T12:34:57.552Z,33.53
2023-05-05T12:37:26.266Z,34.50
2023-05-05T12:39:56.147Z,34.30
2023-05-05T12:42:23.286Z,30.89
2023-05-05T12:44:49.922Z,31.23
2023-05-05T12:47:31.482Z,30.04
2023-05-05T12:50:00.229Z,30.34
2023-05-05T12:52:45.707Z,31.02
2023-05-05T12:55:12.617Z,32.14
2023-05-05T12:57:39.681Z,33.56
2023-05-05T13:00:15.494Z,32.67
2023-05-05T13:02:42.300Z,30.48
2023-05-05T13:05:09.264Z,32.03
2023-05-05T13:07:36.595Z,32.61
2023-05-05T13:10:09.501Z,31.74
2023-05-05T13:12:36.732Z,32.89
2023-05-05T13:15:03.874Z,32.88
2023-05-05T13:17:31.471Z,32.15
2023-05-05T13:19:59.450Z,30.65
2023-05-05T13:22:28.317Z,29.51
2023-05-05T13:24:54.862Z,29.67
2023-05-05T13:27:21.818Z,29.78
2023-05-05T13:29:48.546Z,30.79
2023-05-05T13:32:15.328Z,31.40
2023-05-05T13:34:43.563Z,33.10
2023-05-05T13:37:10.235Z,33.96
2023-05-05T13:39:37.014Z,34.14
2023-05-05T13:42:03.886Z,32.90
2023-05-05T13:44:30.293Z,31.52
2023-05-05T13:46:57.598Z,33.41
2023-05-05T13:49:24.220Z,34.30
2023-05-05T13:51:50.951Z,35.41
2023-05-05T13:54:17.483Z,33.92
2023-05-05T13:56:44.562Z,34.00
2023-05-05T13:59:11.122Z,31.82
2023-05-05T14:01:38.100Z,30.79
2023-05-05T14:04:05.710Z,32.09
2023-05-05T14:06:33.580Z,32.00
2023-05-05T14:09:00.536Z,31.64
2023-05-05T14:11:27.501Z,31.53
2023-05-05T14:13:54.099Z,31.22
2023-05-05T14:16:20.818Z,30.34
2023-05-05T14:18:47.499Z,30.60
2023-05-05T14:21:14.446Z,31.70
2023-05-05T14:23:41.131Z,32.20
2023-05-05T14:26:09.004Z,32.59
2023-05-05T14:28:36.087Z,32.59
2023-05-05T14:31:02.781Z,32.45
2023-05-05T14:33:29.330Z,32.60
2023-05-05T14:35:56.053Z,33.32
2023-05-05T14:38:22.753Z,33.77
2023-05-05T14:40:49.583Z,33.38
2023-05-05T14:43:16.067Z,31.74
2023-05-05T14:45:44.130Z,29.75
2023-05-05T14:48:12.074Z,30.78
2023-05-05T14:50:40.607Z,30.75
2023-05-05T14:53:07.303Z,30.48
2023-05-05T14:55:34.099Z,30.35
2023-05-05T14:58:00.802Z,29.88
2023-05-05T15:00:27.808Z,30.07
2023-05-05T15:02:54.489Z,31.01
2023-05-05T15:05:21.293Z,31.52
2023-05-05T15:07:47.992Z,31.20
2023-05-05T15:10:14.976Z,30.11
2023-05-05T15:12:42.860Z,30.92
2023-05-05T15:15:10.347Z,30.76
2023-05-05T15:17:38.796Z,29.89
2023-05-05T15:20:06.711Z,29.99
2023-05-05T15:22:33.544Z,30.28
2023-05-05T15:25:00.522Z,29.12
2023-05-05T15:27:27.325Z,29.42
2023-05-05T15:29:55.109Z,29.27
2023-05-05T15:32:22.105Z,29.04
2023-05-05T15:34:50.394Z,28.86
2023-05-05T15:37:17.331Z,29.07
2023-05-05T15:39:44.029Z,28.24
2023-05-05T15:42:10.704Z,28.46
2023-05-05T15:44:37.558Z,28.14
2023-05-05T15:47:04.926Z,28.52
2023-05-05T15:49:31.685Z,28.28
2023-05-05T15:51:58.396Z,27.93
2023-05-05T15:54:25.139Z,27.98
2023-05-05T15:56:51.793Z,27.87
2023-05-05T15:59:19.419Z,27.49
2023-05-05T16:01:46.968Z,27.34
2023-05-05T16:04:14.207Z,27.29
2023-05-05T16:06:40.956Z,27.62
2023-05-05T16:09:07.945Z,27.41
2023-05-05T16:11:34.959Z,27.39
2023-05-05T16:14:01.642Z,27.17
2023-05-05T16:16:28.451Z,26.95
2023-05-05T16:18:55.375Z,26.81
2023-05-05T16:21:22.047Z,26.83
2023-05-05T16:23:48.799Z,27.22
2023-05-05T16:26:15.360Z,27.46
2023-05-05T16:28:42.172Z,27.62
2023-05-05T16:31:13.504Z,26.69
2023-05-05T16:33:41.244Z,26.59
2023-05-05T16:36:12.431Z,26.57
2023-05-05T16:38:41.809Z,26.80
2023-05-05T16:41:13.827Z,26.67
2023-05-05T16:43:40.757Z,26.68
2023-05-05T16:46:07.647Z,26.57
2023-05-05T16:48:34.523Z,26.94
2023-05-05T16:51:01.253Z,27.14
2023-05-05T16:53:28.067Z,26.47
2023-05-05T16:55:54.761Z,26.57
2023-05-05T16:58:25.342Z,26.68
2023-05-05T17:00:52.678Z,26.31
2023-05-05T17:03:20.219Z,26.27
2023-05-05T17:05:49.784Z,26.41
2023-05-05T17:08:17.163Z,26.48
2023-05-05T17:10:45.299Z,26.49
2023-05-05T17:13:14.106Z,25.86
2023-05-05T17:15:41.306Z,25.75
2023-05-05T17:18:12.807Z,26.13
2023-05-05T17:20:44.165Z,25.96
2023-05-05T17:23:10.792Z,25.74
2023-05-05T17:25:37.465Z,25.92
2023-05-05T17:28:04.280Z,25.95
2023-05-05T17:30:30.831Z,25.78
2023-05-05T17:32:57.560Z,25.71
2023-05-05T17:35:24.194Z,25.72
2023-05-05T17:37:50.797Z,25.68
2023-05-05T17:40:17.477Z,25.74
2023-05-05T17:42:44.278Z,25.91
2023-05-05T17:45:11.472Z,25.95
2023-05-05T17:47:38.675Z,25.92
2023-05-05T17:50:05.928Z,26.00
2023-05-05T17:52:32.361Z,25.86
2023-05-05T17:54:58.940Z,25.69
2023-05-05T17:57:25.599Z,25.51
2023-05-05T17:59:53.709Z,25.53
2023-05-05T18:02:20.825Z,25.55
2023-05-05T18:04:47.717Z,25.26
2023-05-05T18:07:14.838Z,25.19
2023-05-05T18:09:41.559Z,25.45
2023-05-05T18:12:08.325Z,25.35
2023-05-05T18:14:34.997Z,25.11
2023-05-05T18:17:01.714Z,25.10
2023-05-05T18:19:28.387Z,25.06
2023-05-05T18:21:55.012Z,25.13
2023-05-05T18:24:21.895Z,24.99
2023-05-05T18:26:50.489Z,24.96
2023-05-05T18:29:21.866Z,25.03
2023-05-05T18:31:51.681Z,24.92
2023-05-05T18:34:19.478Z,24.64
2023-05-05T18:36:46.782Z,24.54
2023-05-05T18:39:13.625Z,24.63
2023-05-05T18:41:40.912Z,24.39
2023-05-05T18:44:07.525Z,24.57
2023-05-05T18:46:34.145Z,24.46
2023-05-05T18:49:00.896Z,24.41
2023-05-05T18:51:28.411Z,24.30
2023-05-05T18:53:55.237Z,24.16
2023-05-05T18:56:22.055Z,24.12
2023-05-05T18:58:49.456Z,23.93
2023-05-05T19:01:16.401Z,23.91
2023-05-05T19:03:47.988Z,24.00
2023-05-05T19:06:15.895Z,23.99
2023-05-05T19:08:43.301Z,23.69
2023-05-05T19:11:10.165Z,23.83
2023-05-05T19:16:08.715Z,23.64
2023-05-05T19:18:35.694Z,23.39
2023-05-05T19:21:02.595Z,23.28
2023-05-05T19:23:29.251Z,23.64
2023-05-05T19:25:55.944Z,23.62
2023-05-05T19:28:22.643Z,23.56
2023-05-05T19:30:49.365Z,23.44
2023-05-05T19:33:16.511Z,23.45
2023-05-05T19:35:43.637Z,23.42
2023-05-05T19:38:10.844Z,23.15
2023-05-05T19:40:40.942Z,23.40
2023-05-05T19:43:07.997Z,22.93
2023-05-05T19:45:34.925Z,22.81
2023-05-05T19:48:02.305Z,22.76
2023-05-05T19:50:30.672Z,22.68
2023-05-05T19:52:57.953Z,22.49
2023-05-05T19:55:24.545Z,22.60
2023-05-05T19:57:51.356Z,22.32
2023-05-05T20:00:19.555Z,22.12
2023-05-05T20:02:46.440Z,21.95
2023-05-05T20:05:14.948Z,21.94
2023-05-05T20:07:44.276Z,21.99
2023-05-05T20:10:13.072Z,21.88
2023-05-05T20:12:42.341Z,21.70
2023-05-05T20:15:10.892Z,21.70
2023-05-05T20:17:37.713Z,21.66
2023-05-05T20:20:04.857Z,21.72
2023-05-05T20:22:31.692Z,21.70
2023-05-05T20:24:58.368Z,21.66
2023-05-05T20:27:26.625Z,21.30
2023-05-05T20:29:54.022Z,21.45
2023-05-05T20:32:20.829Z,21.64
2023-05-05T20:34:48.140Z,21.46
2023-05-05T20:37:14.787Z,21.28
2023-05-05T20:39:43.703Z,21.11
2023-05-05T20:42:10.850Z,21.00
2023-05-05T20:44:37.737Z,20.67
2023-05-05T20:47:04.648Z,20.72
2023-05-05T20:49:31.447Z,20.47
2023-05-05T20:51:58.666Z,20.37
2023-05-05T20:54:25.290Z,20.19
2023-05-05T20:56:53.128Z,20.18
2023-05-05T20:59:19.745Z,20.23
2023-05-05T21:01:46.438Z,20.29
2023-05-05T21:04:13.052Z,20.34
2023-05-05T21:06:39.668Z,20.26
2023-05-05T21:09:06.725Z,20.30
2023-05-05T21:11:33.494Z,20.33
2023-05-05T21:14:00.050Z,20.10
2023-05-05T21:16:26.753Z,20.17
2023-05-05T21:18:53.483Z,19.90
2023-05-05T21:21:20.251Z,20.02
2023-05-05T21:23:47.852Z,20.13
2023-05-05T21:26:14.546Z,20.13
2023-05-05T21:28:41.479Z,20.10
2023-05-05T21:31:21.046Z,19.86
2023-05-05T21:33:48.952Z,19.51
2023-05-05T21:36:17.448Z,19.55
2023-05-05T21:38:44.057Z,19.54
2023-05-05T21:41:10.691Z,19.63
2023-05-05T21:43:37.257Z,19.55
2023-05-05T21:46:05.408Z,19.43
2023-05-05T21:48:32.631Z,19.34
2023-05-05T21:50:59.599Z,19.60
2023-05-05T21:53:26.388Z,19.37
2023-05-05T21:55:52.983Z,19.65
2023-05-05T21:58:19.572Z,19.59
2023-05-05T22:00:49.376Z,19.59
2023-05-05T22:03:16.271Z,19.20
2023-05-05T22:05:43.174Z,19.39
2023-05-05T22:08:09.948Z,19.38
2023-05-05T22:10:36.635Z,19.23
2023-05-05T22:13:03.400Z,19.27
2023-05-05T22:15:35.708Z,19.58
2023-05-05T22:18:09.714Z,19.42
2023-05-05T22:20:37.134Z,19.18
2023-05-05T22:23:03.792Z,19.16
2023-05-05T22:25:30.508Z,19.18
2023-05-05T22:27:57.137Z,19.21
2023-05-05T22:30:23.806Z,19.34
2023-05-05T22:32:50.412Z,19.11
2023-05-05T22:35:17.739Z,19.31
2023-05-05T22:37:44.582Z,19.10
2023-05-05T22:40:12.840Z,19.18
2023-05-05T22:42:39.735Z,19.24
2023-05-05T22:45:07.394Z,19.22
2023-05-05T22:47:34.357Z,19.23
2023-05-05T22:50:01.120Z,19.37
2023-05-05T22:52:28.913Z,19.34
2023-05-05T22:54:56.046Z,19.41
2023-05-05T22:57:22.776Z,19.26
2023-05-05T22:59:50.091Z,19.24
2023-05-05T23:02:16.726Z,19.06
2023-05-05T23:04:44.979Z,19.23
2023-05-05T23:07:12.745Z,19.03
2023-05-05T23:09:39.692Z,19.07
2023-05-05T23:12:06.721Z,19.33
2023-05-05T23:14:33.461Z,19.32
2023-05-05T23:17:00.269Z,19.26
2023-05-05T23:19:28.972Z,19.22
2023-05-05T23:21:55.681Z,19.18
2023-05-05T23:24:22.332Z,19.22
2023-05-05T23:26:48.933Z,19.10
2023-05-05T23:29:15.653Z,19.18
2023-05-05T23:31:42.194Z,19.18
2023-05-05T23:34:08.834Z,19.09
2023-05-05T23:36:35.514Z,19.04
2023-05-05T23:39:02.088Z,19.04
2023-05-05T23:41:28.837Z,19.08
2023-05-05T23:43:56.389Z,19.07
2023-05-05T23:46:23.981Z,19.02
2023-05-05T23:48:51.215Z,18.92
2023-05-05T23:51:17.991Z,18.87
2023-05-05T23:53:44.632Z,18.82
2023-05-05T23:56:11.587Z,18.75
2023-05-05T23:58:38.234Z,18.68
